Arlee, Montana
Current Conditions -  °F | °C
As of 11:53 PM on Sunday 23 Nov 2014 (Local Time) from KMSO Reporting Station
Overcast Overcast  
Wind Chill: -3°   Ceiling: 6000
Heat Index:   Visibility: 10mi
Dew Point: -1°   Wind: 7mph
Humidity: 89%   Direction: 230°SW
Pressure: 30.04"   Gusts: NA
Location:  47.16°N, 114.09°W
Report Text: KMSO 240653Z AUTO 23006KT 10SM FEW045 BKN060 OVC080 01/M01 A3004 RMK AO2 SLP195 T00061011 400441011
Loading
Personal Weather Stations






























Interactive Weather Map New forecast layout! Learn more

10-Day Weather Forecast

Advertisements
Track Severe Weather on mobile